Wilson Creek, WA

9:08 PM PDT on July 10, 2014 (GMT -0700)
Ephrata Municipal (KEPH) Elev 1273 ft | 47.31 °N, 119.52 °W | Change Station

Current weather conditions updated 15 minutes ago

Clear
Clear
86 °F
Feels Like 86 °F
N
6
Wind Variable Wind from WSW

Tomorrow is forecast to be nearly the same temperature as today.

Today
High -- | Low -- °F
--% Chance of Precip.
Yesterday
High -- | Low -- °F
Precip. -- in
5:10 AM 8:52 PM
Waxing Gibbous, 97% visible
Pressure 29.75 in
Visibility 10.0 miles
Clouds Clear
Dew Point 30 °F
Humidity 13%
Rainfall 0.00 in
Snow Depth Not available.
UV 0 out of 12
Pollen 5.30 out of 12
Air Quality Not available.
Flu Activity Sporadic
METAR KEPH 110353Z AUTO 25005KT 10SM CLR 30/M01 A2978 RMK AO2 SLP073 T03001011

More Conditions Fewer Conditions

Pressure 29.75 in
Visibility 10.0 miles
Clouds Clear
Dew Point 30 °F
Humidity 13%
Rainfall 0.00 in
Snow Depth Not available.
UV 0 out of 12
Pollen 5.30 out of 12
Air Quality Not available.
Flu Activity Sporadic
METAR KEPH 110353Z AUTO 25005KT 10SM CLR 30/M01 A2978 RMK AO2 SLP073 T03001011

More Conditions Fewer Conditions

10-Day Weather Forecast

Almanac

Astronomy

Jul. 10, 2014 Rise Set
Actual Time 5:10 AM PDT 8:52 PM PDT
Civil Twilight 4:31 AM PDT 9:32 PM PDT
Nautical Twilight 3:38 AM PDT 10:24 PM PDT
Astronomical Twilight 2:23 AM PDT 11:38 PM PDT
Moon 7:06 PM PDT (7/10) 3:31 AM PDT (7/10)
Length of Visible Light 17h 00m
Length of Day
15h 42m
Tomorrow will be 1m 32s shorter.
Waxing Gibbous, 97% of the Moon is Illuminated
Jul 11
Waxing Gibbous
Jul 12
Full
Jul 18
Last Quarter
Jul 26
New
Aug 3
First Quarter

Today's Extremes

State Highs State Lows

Community

WunderPhotos

Upload Photos

1,732,389 photos uploaded!

Nearby

Snow Depth

Station Depth Elevation
Trough 0 in 5300 ft
Grouse Camp 0 in 5380 ft
Moses Mountain 0 in 5300 ft
Stevens Pass 0 in 4070 ft
Quartz Peak 0 in 4700 ft

Earthquake Activity

City Distance Mag. Time & Date
No recent earthquake activity has been reported nearby.
Minimum magnitude displayed is 2.5.

Coastal Water Temperatures

Place Temperature
No Stations Reporting

Nearby Weather Stations

Station Location Temp. Windchill Dew Point Humidity Wind Precip. Elev Updated Type
Adrian, Soap Lake, WA 80.2 °F - 34 °F 19% SSE  at  0.0 mph 0.00 in / hr 1201 ft 9:08 PM PDT Rapid Fire
HADS CRAB CREEK NEAR MOSES LAKE 4N WA, Moses Lake, WA 3 °F 3 °F - - North  at  - 0.00 in / hr 1069 ft 7:45 PM PDT MADIS
Civic Center, Moses Lake, WA 83.0 °F - 49 °F 31% SW  at  0.0 mph 0.00 in / hr 1050 ft 9:08 PM PDT Rapid Fire

Show More Stations Show Fewer Stations